createdAt,value
2018-04-29T00:01:33.071Z,11.00
2018-04-29T00:03:59.469Z,11.00
2018-04-29T00:06:25.900Z,11.00
2018-04-29T00:08:52.311Z,11.00
2018-04-29T00:11:19.639Z,10.90
2018-04-29T00:13:46.060Z,10.90
2018-04-29T00:16:13.237Z,10.90
2018-04-29T00:18:39.667Z,10.80
2018-04-29T00:21:06.067Z,10.80
2018-04-29T00:23:32.498Z,10.80
2018-04-29T00:25:59.650Z,10.80
2018-04-29T00:28:26.842Z,10.70
2018-04-29T00:30:53.400Z,10.70
2018-04-29T00:33:19.958Z,10.70
2018-04-29T00:35:46.516Z,10.70
2018-04-29T00:38:12.932Z,10.70
2018-04-29T00:40:39.370Z,10.70
2018-04-29T00:43:05.988Z,10.60
2018-04-29T00:45:33.265Z,10.50
2018-04-29T00:48:00.432Z,10.50
2018-04-29T00:50:27.605Z,10.40
2018-04-29T00:52:54.766Z,10.40
2018-04-29T00:55:22.036Z,10.40
2018-04-29T00:57:49.183Z,10.40
2018-04-29T01:00:15.633Z,10.40
2018-04-29T01:02:42.061Z,10.40
2018-04-29T01:05:08.524Z,10.30
2018-04-29T01:07:35.051Z,10.30
2018-04-29T01:10:02.323Z,10.30
2018-04-29T01:12:29.531Z,10.30
2018-04-29T01:14:55.952Z,10.20
2018-04-29T01:17:23.131Z,10.30
2018-04-29T01:19:49.589Z,10.20
2018-04-29T01:22:16.140Z,10.30
2018-04-29T01:24:43.329Z,10.20
2018-04-29T01:27:10.913Z,10.20
2018-04-29T01:29:37.347Z,10.20
2018-04-29T01:32:04.548Z,10.20
2018-04-29T01:34:30.987Z,10.20
2018-04-29T01:36:58.500Z,10.20
2018-04-29T01:39:24.986Z,10.20
2018-04-29T01:41:51.397Z,10.20
2018-04-29T01:44:17.826Z,10.20
2018-04-29T01:46:44.423Z,10.20
2018-04-29T01:49:10.871Z,10.20
2018-04-29T01:51:38.014Z,10.10
2018-04-29T01:54:05.222Z,10.10
2018-04-29T01:56:31.743Z,10.10
2018-04-29T01:58:58.915Z,10.00
2018-04-29T02:01:25.333Z,10.00
2018-04-29T02:03:52.995Z,10.00
2018-04-29T02:06:19.455Z,10.00
2018-04-29T02:08:45.867Z,10.00
2018-04-29T02:11:13.045Z,9.90
2018-04-29T02:13:40.315Z,9.90
2018-04-29T02:16:07.471Z,9.90
2018-04-29T02:18:34.659Z,9.90
2018-04-29T02:21:01.063Z,9.90
2018-04-29T02:23:27.541Z,9.90
2018-04-29T02:25:54.728Z,9.80
2018-04-29T02:28:22.017Z,9.80
2018-04-29T02:30:49.174Z,9.80
2018-04-29T02:33:16.360Z,9.70
2018-04-29T02:35:42.921Z,9.70
2018-04-29T02:38:10.125Z,9.70
2018-04-29T02:40:36.580Z,9.70
2018-04-29T02:43:03.501Z,9.70
2018-04-29T02:45:30.704Z,9.70
2018-04-29T02:47:57.100Z,9.70
2018-04-29T02:50:23.600Z,9.60
2018-04-29T02:52:50.875Z,9.60
2018-04-29T02:55:18.162Z,9.50
2018-04-29T02:57:44.564Z,9.50
2018-04-29T03:00:10.976Z,9.50
2018-04-29T03:02:37.426Z,9.50
2018-04-29T03:05:03.870Z,9.50
2018-04-29T03:07:31.049Z,9.50
2018-04-29T03:09:57.504Z,9.50
2018-04-29T03:12:24.690Z,9.50
2018-04-29T03:14:51.260Z,9.50
2018-04-29T03:17:17.667Z,9.50
2018-04-29T03:19:44.847Z,9.50
2018-04-29T03:22:12.005Z,9.50
2018-04-29T03:24:38.490Z,9.50
2018-04-29T03:27:05.677Z,9.50
2018-04-29T03:29:32.194Z,9.50
2018-04-29T03:31:58.630Z,9.40
2018-04-29T03:34:25.201Z,9.40
2018-04-29T03:36:51.693Z,9.40
2018-04-29T03:39:18.110Z,9.40
2018-04-29T03:41:44.526Z,9.40
2018-04-29T03:44:10.943Z,9.40
2018-04-29T03:46:38.234Z,9.30
2018-04-29T03:49:04.792Z,9.30
2018-04-29T03:51:31.244Z,9.30
2018-04-29T03:53:58.413Z,9.30
2018-04-29T03:56:25.588Z,9.30
2018-04-29T03:59:05.056Z,9.30
2018-04-29T04:01:51.284Z,9.30
2018-04-29T04:04:10.233Z,9.30
2018-04-29T04:06:36.627Z,9.40
2018-04-29T04:09:03.135Z,9.40
2018-04-29T04:11:30.312Z,9.40
2018-04-29T04:13:56.864Z,9.40
2018-04-29T04:16:23.423Z,9.50
2018-04-29T04:18:49.878Z,9.40
2018-04-29T04:21:17.029Z,9.50
2018-04-29T04:23:43.517Z,9.50
2018-04-29T04:26:09.913Z,9.60
2018-04-29T04:28:36.322Z,9.60
2018-04-29T04:31:02.877Z,9.70
2018-04-29T04:33:30.045Z,9.80
2018-04-29T04:35:57.226Z,9.80
2018-04-29T04:38:23.622Z,9.80
2018-04-29T04:40:50.040Z,10.00
2018-04-29T04:43:16.444Z,10.10
2018-04-29T04:45:43.404Z,10.20
2018-04-29T04:48:09.852Z,10.40
2018-04-29T04:50:36.293Z,10.50
2018-04-29T04:53:02.779Z,10.80
2018-04-29T04:55:29.176Z,11.30
2018-04-29T04:57:56.331Z,13.00
2018-04-29T05:00:22.802Z,13.00
2018-04-29T05:02:49.975Z,15.00
2018-04-29T05:05:17.107Z,16.10
2018-04-29T05:07:43.606Z,16.10
2018-04-29T05:10:10.101Z,17.20
2018-04-29T05:12:36.722Z,18.30
2018-04-29T05:15:04.004Z,20.40
2018-04-29T05:17:30.557Z,20.30
2018-04-29T05:19:57.828Z,21.20
2018-04-29T05:22:25.107Z,21.30
2018-04-29T05:24:52.384Z,21.00
2018-04-29T05:27:18.885Z,21.00
2018-04-29T05:29:45.348Z,20.60
2018-04-29T05:32:11.851Z,20.40
2018-04-29T05:34:39.126Z,21.40
2018-04-29T05:37:07.023Z,22.00
2018-04-29T05:39:33.467Z,21.90
2018-04-29T05:42:01.370Z,22.50
2018-04-29T05:44:27.809Z,22.40
2018-04-29T05:46:55.221Z,22.70
2018-04-29T05:49:21.755Z,22.60
2018-04-29T05:51:48.202Z,22.70
2018-04-29T05:54:15.415Z,21.90
2018-04-29T05:56:41.845Z,21.90
2018-04-29T05:59:08.249Z,21.30
2018-04-29T06:01:34.700Z,21.30
2018-04-29T06:04:01.203Z,21.60
2018-04-29T06:06:28.411Z,22.20
2018-04-29T06:08:55.469Z,22.20
2018-04-29T06:11:22.209Z,22.30
2018-04-29T06:13:49.490Z,23.20
2018-04-29T06:16:15.945Z,23.20
2018-04-29T06:18:42.602Z,23.60
2018-04-29T06:21:09.165Z,23.90
2018-04-29T06:23:35.636Z,23.80
2018-04-29T06:26:02.264Z,24.00
2018-04-29T06:28:28.717Z,24.40
2018-04-29T06:30:55.139Z,25.20
2018-04-29T06:33:21.573Z,25.50
2018-04-29T06:35:48.047Z,25.60
2018-04-29T06:38:14.462Z,25.80
2018-04-29T06:40:40.885Z,26.30
2018-04-29T06:43:07.308Z,26.80
2018-04-29T06:45:33.734Z,27.00
2018-04-29T06:48:00.164Z,27.00
2018-04-29T06:50:28.681Z,27.30
2018-04-29T06:52:55.859Z,28.10
2018-04-29T06:55:22.268Z,28.10
2018-04-29T06:57:48.680Z,28.50
2018-04-29T07:00:15.107Z,28.70
2018-04-29T07:02:42.325Z,28.80
2018-04-29T07:05:08.736Z,28.80
2018-04-29T07:07:35.950Z,29.30
2018-04-29T07:10:02.581Z,29.20
2018-04-29T07:12:29.146Z,29.40
2018-04-29T07:14:55.609Z,29.50
2018-04-29T07:17:22.620Z,29.30
2018-04-29T07:19:49.226Z,29.60
2018-04-29T07:22:16.432Z,30.70
2018-04-29T07:24:42.888Z,30.60
2018-04-29T07:27:09.955Z,31.10
2018-04-29T07:29:36.380Z,31.40
2018-04-29T07:32:03.565Z,32.90
2018-04-29T07:34:30.115Z,32.80
2018-04-29T07:36:56.559Z,33.20
2018-04-29T07:39:23.841Z,32.30
2018-04-29T07:41:50.808Z,32.30
2018-04-29T07:44:17.469Z,32.60
2018-04-29T07:46:44.617Z,33.50
2018-04-29T07:49:11.053Z,33.50
2018-04-29T07:51:37.501Z,34.20
2018-04-29T07:54:04.058Z,34.30
2018-04-29T07:56:30.583Z,34.40
2018-04-29T07:58:57.128Z,34.40
2018-04-29T08:01:23.691Z,34.20
2018-04-29T08:03:50.228Z,34.50
2018-04-29T08:06:17.400Z,34.50
2018-04-29T08:08:43.814Z,34.50
2018-04-29T08:11:10.252Z,34.40
2018-04-29T08:13:37.914Z,34.20
2018-04-29T08:16:04.384Z,33.90
2018-04-29T08:18:30.799Z,33.40
2018-04-29T08:20:57.322Z,33.00
2018-04-29T08:23:23.878Z,32.50
2018-04-29T08:25:50.396Z,31.70
2018-04-29T08:28:17.575Z,30.90
2018-04-29T08:30:44.107Z,30.90
2018-04-29T08:33:11.481Z,30.40
2018-04-29T08:35:37.960Z,30.30
2018-04-29T08:38:04.438Z,29.70
2018-04-29T08:40:30.946Z,28.80
2018-04-29T08:42:58.044Z,27.90
2018-04-29T08:45:24.515Z,27.10
2018-04-29T08:47:50.950Z,26.40
2018-04-29T08:50:17.635Z,25.80
2018-04-29T08:52:44.146Z,25.50
2018-04-29T08:55:11.553Z,25.10
2018-04-29T08:57:38.828Z,25.00
2018-04-29T09:00:07.419Z,24.70
2018-04-29T09:02:35.118Z,24.40
2018-04-29T09:05:02.330Z,24.00
2018-04-29T09:07:29.397Z,23.90
2018-04-29T09:09:56.021Z,23.80
2018-04-29T09:12:22.783Z,23.80
2018-04-29T09:14:49.997Z,23.80
2018-04-29T09:17:17.540Z,23.70
2018-04-29T09:19:44.094Z,23.50
2018-04-29T09:22:10.654Z,23.40
2018-04-29T09:24:37.214Z,23.30
2018-04-29T09:27:04.512Z,23.30
2018-04-29T09:29:30.951Z,23.30
2018-04-29T09:31:58.014Z,23.50
2018-04-29T09:34:24.532Z,23.50
2018-04-29T09:36:51.133Z,23.40
2018-04-29T09:39:17.694Z,23.40
2018-04-29T09:41:44.143Z,23.40
2018-04-29T09:44:11.383Z,23.40
2018-04-29T09:46:39.514Z,23.40
2018-04-29T09:49:06.061Z,23.30
2018-04-29T09:51:33.448Z,23.20
2018-04-29T09:54:00.726Z,23.20
2018-04-29T09:56:27.280Z,23.20
2018-04-29T09:58:53.838Z,23.20
2018-04-29T10:01:25.055Z,23.30
2018-04-29T10:03:51.556Z,23.30
2018-04-29T10:06:18.220Z,23.30
2018-04-29T10:08:44.699Z,23.40
2018-04-29T10:11:11.153Z,23.40
2018-04-29T10:13:37.691Z,23.40
2018-04-29T10:16:04.205Z,23.50
2018-04-29T10:18:31.469Z,23.50
2018-04-29T10:20:57.917Z,23.50
2018-04-29T10:23:24.367Z,23.60
2018-04-29T10:25:50.890Z,23.60
2018-04-29T10:28:18.070Z,23.60
2018-04-29T10:30:44.721Z,23.60
2018-04-29T10:33:11.911Z,23.50
2018-04-29T10:35:38.395Z,23.50
2018-04-29T10:38:04.833Z,23.50
2018-04-29T10:40:31.846Z,23.60
2018-04-29T10:43:00.920Z,23.60
2018-04-29T10:45:27.326Z,23.60
2018-04-29T10:47:53.775Z,23.60
2018-04-29T10:50:20.225Z,23.70
2018-04-29T10:52:46.640Z,23.80
2018-04-29T10:55:13.152Z,23.80
2018-04-29T10:57:39.566Z,23.80
2018-04-29T11:00:06.986Z,23.70
2018-04-29T11:02:33.666Z,23.60
2018-04-29T11:05:00.865Z,23.60
2018-04-29T11:07:27.397Z,23.50
2018-04-29T11:09:54.774Z,23.50
2018-04-29T11:12:21.952Z,23.60
2018-04-29T11:14:48.506Z,23.60
2018-04-29T11:17:15.065Z,23.70
2018-04-29T11:19:42.336Z,23.70
2018-04-29T11:22:09.572Z,23.70
2018-04-29T11:24:35.908Z,23.70
2018-04-29T11:27:02.407Z,23.70
2018-04-29T11:29:29.613Z,23.70
2018-04-29T11:31:56.043Z,23.70
2018-04-29T11:34:23.742Z,23.70
2018-04-29T11:36:50.253Z,23.70
2018-04-29T11:39:16.670Z,23.70
2018-04-29T11:41:43.134Z,23.80
2018-04-29T11:44:10.478Z,23.90
2018-04-29T11:46:37.754Z,23.90
2018-04-29T11:49:04.914Z,23.90
2018-04-29T11:51:32.204Z,23.80
2018-04-29T11:54:00.498Z,23.90
2018-04-29T11:56:27.058Z,23.90
2018-04-29T11:58:54.325Z,24.00
2018-04-29T12:01:21.552Z,24.10
2018-04-29T12:03:48.061Z,24.10
2018-04-29T12:06:15.336Z,24.40
2018-04-29T12:08:42.612Z,24.50
2018-04-29T12:11:09.116Z,24.40
2018-04-29T12:13:36.641Z,24.50
2018-04-29T12:16:03.849Z,24.60
2018-04-29T12:18:30.387Z,24.60
2018-04-29T12:20:56.852Z,24.60
2018-04-29T12:23:23.268Z,24.70
2018-04-29T12:25:49.776Z,24.80
2018-04-29T12:28:16.294Z,25.00
2018-04-29T12:30:43.456Z,25.10
2018-04-29T12:33:10.038Z,25.10
2018-04-29T12:35:36.491Z,25.00
2018-04-29T12:38:03.687Z,25.00
2018-04-29T12:40:30.223Z,25.00
2018-04-29T12:42:56.657Z,25.00
2018-04-29T12:45:23.115Z,24.90
2018-04-29T12:47:50.268Z,24.70
2018-04-29T12:50:16.816Z,24.70
2018-04-29T12:52:43.258Z,24.70
2018-04-29T12:55:09.783Z,24.60
2018-04-29T12:57:36.269Z,24.70
2018-04-29T13:00:02.937Z,24.80
2018-04-29T13:02:29.351Z,24.80
2018-04-29T13:04:56.489Z,24.90
2018-04-29T13:07:22.925Z,24.90
2018-04-29T13:09:49.361Z,25.00
2018-04-29T13:12:15.805Z,25.00
2018-04-29T13:14:42.251Z,25.20
2018-04-29T13:17:08.656Z,25.40
2018-04-29T13:19:35.127Z,25.50
2018-04-29T13:22:01.605Z,25.40
2018-04-29T13:24:28.892Z,25.40
2018-04-29T13:26:56.168Z,25.30
2018-04-29T13:29:23.330Z,25.30
2018-04-29T13:31:50.611Z,25.30
2018-04-29T13:34:17.888Z,25.10
2018-04-29T13:36:44.365Z,25.10
2018-04-29T13:39:10.899Z,25.10
2018-04-29T13:41:38.085Z,25.40
2018-04-29T13:44:04.636Z,25.40
2018-04-29T13:46:31.109Z,25.60
2018-04-29T13:48:57.544Z,25.60
2018-04-29T13:51:24.823Z,25.40
2018-04-29T13:53:51.481Z,25.30
2018-04-29T13:56:17.886Z,25.30
2018-04-29T13:58:44.446Z,25.20
2018-04-29T14:01:11.374Z,25.20
2018-04-29T14:03:38.844Z,25.20
2018-04-29T14:06:05.257Z,25.30
2018-04-29T14:08:31.754Z,25.40
2018-04-29T14:10:58.924Z,25.30
2018-04-29T14:13:26.082Z,25.20
2018-04-29T14:15:53.263Z,25.00
2018-04-29T14:18:20.544Z,25.00
2018-04-29T14:20:47.762Z,25.10
2018-04-29T14:23:14.303Z,25.10
2018-04-29T14:25:40.743Z,25.10
2018-04-29T14:28:07.876Z,25.00
2018-04-29T14:30:35.013Z,24.90
2018-04-29T14:33:01.443Z,24.90
2018-04-29T14:35:27.886Z,24.80
2018-04-29T14:37:55.043Z,24.60
2018-04-29T14:40:22.335Z,24.50
2018-04-29T14:42:48.824Z,24.50
2018-04-29T14:45:15.456Z,24.50
2018-04-29T14:47:42.485Z,24.70
2018-04-29T14:50:09.590Z,24.90
2018-04-29T14:52:36.056Z,25.10
2018-04-29T14:55:02.596Z,25.20
2018-04-29T14:57:29.783Z,25.30
2018-04-29T14:59:56.205Z,25.30
2018-04-29T15:02:22.627Z,25.30
2018-04-29T15:04:49.100Z,25.30
2018-04-29T15:07:15.701Z,25.20
2018-04-29T15:09:42.857Z,25.20
2018-04-29T15:12:09.271Z,25.10
2018-04-29T15:14:35.701Z,25.10
2018-04-29T15:17:03.246Z,25.10
2018-04-29T15:19:48.289Z,24.90
2018-04-29T15:22:14.724Z,24.90
2018-04-29T15:24:41.250Z,24.90
2018-04-29T15:27:07.807Z,24.80
2018-04-29T15:29:34.994Z,24.60
2018-04-29T15:32:01.381Z,24.60
2018-04-29T15:34:27.854Z,24.50
2018-04-29T15:36:54.351Z,24.20
2018-04-29T15:39:20.768Z,24.00
2018-04-29T15:41:47.145Z,23.90
2018-04-29T15:44:14.463Z,23.60
2018-04-29T15:46:40.877Z,23.60
2018-04-29T15:49:08.070Z,23.40
2018-04-29T15:51:34.558Z,23.30
2018-04-29T15:54:00.968Z,23.30
2018-04-29T15:56:28.204Z,23.10
2018-04-29T15:58:54.705Z,23.10
2018-04-29T16:01:22.116Z,22.90
2018-04-29T16:03:49.230Z,22.90
2018-04-29T16:06:15.787Z,22.80
2018-04-29T16:08:42.992Z,22.70
2018-04-29T16:11:09.487Z,22.70
2018-04-29T16:13:36.101Z,22.60
2018-04-29T16:16:03.479Z,22.50
2018-04-29T16:18:30.671Z,22.60
2018-04-29T16:20:57.123Z,22.50
2018-04-29T16:23:23.552Z,22.60
2018-04-29T16:25:50.742Z,22.80
2018-04-29T16:28:17.292Z,22.80
2018-04-29T16:30:43.792Z,22.90
2018-04-29T16:33:10.203Z,22.90
2018-04-29T16:35:37.587Z,23.10
2018-04-29T16:38:04.090Z,23.00
2018-04-29T16:40:30.648Z,23.10
2018-04-29T16:42:57.213Z,23.10
2018-04-29T16:45:23.716Z,23.10
2018-04-29T16:47:51.122Z,23.00
2018-04-29T16:50:17.652Z,23.00
2018-04-29T16:52:44.171Z,23.00
2018-04-29T16:55:10.768Z,22.90
2018-04-29T16:57:38.154Z,22.80
2018-04-29T17:00:04.697Z,22.80
2018-04-29T17:02:31.865Z,22.70
2018-04-29T17:04:59.199Z,22.60
2018-04-29T17:07:25.655Z,22.60
2018-04-29T17:09:52.972Z,22.50
2018-04-29T17:12:20.183Z,22.30
2018-04-29T17:14:46.665Z,22.30
2018-04-29T17:17:13.090Z,22.30
2018-04-29T17:19:39.564Z,22.20
2018-04-29T17:22:06.005Z,22.00
2018-04-29T17:24:32.499Z,22.00
2018-04-29T17:26:59.103Z,21.90
2018-04-29T17:29:25.608Z,21.80
2018-04-29T17:31:52.111Z,21.70
2018-04-29T17:34:19.384Z,21.50
2018-04-29T17:36:46.636Z,21.40
2018-04-29T17:39:13.224Z,21.40
2018-04-29T17:41:39.688Z,21.30
2018-04-29T17:44:06.170Z,21.20
2018-04-29T17:46:32.702Z,21.10
2018-04-29T17:49:01.234Z,21.00
2018-04-29T17:51:29.601Z,20.90
2018-04-29T17:53:56.462Z,20.80
2018-04-29T17:56:22.917Z,20.70
2018-04-29T17:58:49.577Z,20.60
2018-04-29T18:01:18.009Z,20.50
2018-04-29T18:03:45.118Z,20.40
2018-04-29T18:06:11.542Z,20.30
2018-04-29T18:08:38.059Z,20.20
2018-04-29T18:11:05.321Z,19.90
2018-04-29T18:13:32.614Z,19.80
2018-04-29T18:15:59.273Z,19.80
2018-04-29T18:18:25.712Z,19.70
2018-04-29T18:20:53.012Z,19.60
2018-04-29T18:23:19.476Z,19.60
2018-04-29T18:25:46.394Z,19.50
2018-04-29T18:28:13.087Z,19.50
2018-04-29T18:30:40.571Z,19.40
2018-04-29T18:33:08.148Z,19.30
2018-04-29T18:35:34.611Z,19.20
2018-04-29T18:38:01.281Z,19.10
2018-04-29T18:40:29.680Z,19.10
2018-04-29T18:42:56.687Z,19.00
2018-04-29T18:45:23.129Z,19.00
2018-04-29T18:47:49.668Z,18.90
2018-04-29T18:50:16.410Z,18.90
2018-04-29T18:52:43.066Z,18.80
2018-04-29T18:55:09.604Z,18.80
2018-04-29T18:57:39.151Z,18.70
2018-04-29T19:00:05.814Z,18.70
2018-04-29T19:02:33.761Z,18.70
2018-04-29T19:05:00.980Z,18.70
2018-04-29T19:07:27.803Z,18.60
2018-04-29T19:09:54.459Z,18.60
2018-04-29T19:12:21.571Z,18.50
2018-04-29T19:14:49.867Z,18.50
2018-04-29T19:17:17.049Z,18.50
2018-04-29T19:19:45.753Z,18.40
2018-04-29T19:22:12.408Z,18.40
2018-04-29T19:24:38.984Z,18.30
2018-04-29T19:27:05.505Z,18.30
2018-04-29T19:29:34.098Z,18.30
2018-04-29T19:32:01.359Z,18.20
2018-04-29T19:34:30.217Z,18.10
2018-04-29T19:36:59.228Z,18.10
2018-04-29T19:39:27.094Z,18.00
2018-04-29T19:41:55.418Z,18.00
2018-04-29T19:44:21.972Z,18.00
2018-04-29T19:46:49.151Z,17.90
2018-04-29T19:49:17.102Z,17.90
2018-04-29T19:51:45.856Z,17.80
2018-04-29T19:54:14.485Z,17.80
2018-04-29T19:56:42.945Z,17.70
2018-04-29T19:59:10.215Z,17.70
2018-04-29T20:01:39.989Z,17.70
2018-04-29T20:04:07.632Z,17.70
2018-04-29T20:06:35.724Z,17.70
2018-04-29T20:09:04.386Z,17.60
2018-04-29T20:11:33.596Z,17.60
2018-04-29T20:14:02.844Z,17.60
2018-04-29T20:16:29.631Z,17.60
2018-04-29T20:18:56.102Z,17.60
2018-04-29T20:21:22.516Z,17.60
2018-04-29T20:23:51.121Z,17.60
2018-04-29T20:26:18.727Z,17.60
2018-04-29T20:28:45.954Z,17.60
2018-04-29T20:31:12.538Z,17.60
2018-04-29T20:33:39.732Z,17.60
2018-04-29T20:36:29.323Z,17.60
2018-04-29T20:38:57.079Z,17.60
2018-04-29T20:41:24.266Z,17.70
2018-04-29T20:43:50.820Z,17.70
2018-04-29T20:46:18.092Z,17.70
2018-04-29T20:48:45.370Z,17.80
2018-04-29T20:51:13.376Z,17.80
2018-04-29T20:53:39.833Z,17.70
2018-04-29T20:56:14.913Z,17.80
2018-04-29T20:58:41.422Z,17.70
2018-04-29T21:01:08.621Z,17.80
2018-04-29T21:03:35.241Z,17.80
2018-04-29T21:06:14.393Z,17.80
2018-04-29T21:08:41.561Z,17.80
2018-04-29T21:11:08.703Z,17.80
2018-04-29T21:13:35.142Z,17.70
2018-04-29T21:18:55.919Z,17.80
2018-04-29T21:21:23.091Z,17.70
2018-04-29T21:23:50.473Z,17.80
2018-04-29T21:26:31.840Z,17.80
2018-04-29T21:28:58.996Z,17.70
2018-04-29T21:31:25.469Z,17.70
2018-04-29T21:33:51.942Z,17.70
2018-04-29T21:36:20.191Z,17.80
2018-04-29T21:38:46.574Z,17.80
2018-04-29T21:41:13.059Z,17.80
2018-04-29T21:43:40.433Z,17.70
2018-04-29T21:46:14.867Z,17.70
2018-04-29T21:48:41.274Z,17.70
2018-04-29T21:51:07.722Z,17.70
2018-04-29T21:53:34.248Z,17.60
2018-04-29T21:59:05.201Z,17.60
2018-04-29T22:01:31.579Z,17.60
2018-04-29T22:03:57.977Z,17.60
2018-04-29T22:06:25.126Z,17.70
2018-04-29T22:08:51.555Z,17.70
2018-04-29T22:14:17.021Z,17.80
2018-04-29T22:16:43.435Z,17.80
2018-04-29T22:19:09.897Z,17.90
2018-04-29T22:21:36.678Z,17.90
2018-04-29T22:24:18.132Z,18.00
2018-04-29T22:26:45.364Z,18.00
2018-04-29T22:29:12.577Z,18.00
2018-04-29T22:31:39.757Z,18.00
2018-04-29T22:34:16.948Z,18.00
2018-04-29T22:37:09.387Z,18.00
2018-04-29T22:39:35.990Z,18.00
2018-04-29T22:42:02.494Z,18.00
2018-04-29T22:44:56.735Z,18.00
2018-04-29T22:47:23.203Z,18.00
2018-04-29T22:49:49.644Z,18.00
2018-04-29T22:52:16.908Z,18.00
2018-04-29T22:54:43.348Z,18.00
2018-04-29T22:57:09.771Z,18.00
2018-04-29T22:59:36.255Z,18.00
2018-04-29T23:02:02.709Z,18.10
2018-04-29T23:04:33.763Z,18.00
2018-04-29T23:07:00.956Z,18.00
2018-04-29T23:09:28.173Z,18.00
2018-04-29T23:11:55.380Z,18.00
2018-04-29T23:14:21.897Z,18.00
2018-04-29T23:16:49.088Z,18.00
2018-04-29T23:19:16.240Z,18.00
2018-04-29T23:21:49.878Z,18.00
2018-04-29T23:24:17.110Z,18.00
2018-04-29T23:26:43.608Z,18.00
2018-04-29T23:29:10.790Z,18.00
2018-04-29T23:31:38.053Z,18.00
2018-04-29T23:34:06.345Z,17.90
2018-04-29T23:36:33.551Z,17.90
2018-04-29T23:38:59.964Z,17.90
2018-04-29T23:41:27.145Z,17.80
2018-04-29T23:44:01.652Z,17.80
2018-04-29T23:46:28.878Z,17.70
2018-04-29T23:48:55.395Z,17.70
2018-04-29T23:51:21.811Z,17.70
2018-04-29T23:53:50.377Z,17.70
2018-04-29T23:56:17.531Z,17.70
2018-04-29T23:58:43.975Z,17.70
